createdAt,value
2019-02-21T00:01:51.131Z,8.65
2019-02-21T00:04:19.798Z,7.63
2019-02-21T00:06:48.497Z,7.83
2019-02-21T00:09:17.204Z,8.07
2019-02-21T00:11:45.903Z,8.28
2019-02-21T00:14:14.691Z,8.53
2019-02-21T00:16:43.330Z,8.03
2019-02-21T00:19:12.007Z,8.07
2019-02-21T00:21:40.737Z,7.83
2019-02-21T00:24:09.453Z,8.40
2019-02-21T00:26:38.123Z,8.73
2019-02-21T00:29:06.795Z,8.78
2019-02-21T00:31:35.520Z,8.33
2019-02-21T00:34:04.204Z,8.98
2019-02-21T00:36:32.917Z,8.20
2019-02-21T00:39:01.606Z,9.17
2019-02-21T00:41:31.957Z,8.53
2019-02-21T00:44:00.653Z,7.93
2019-02-21T00:46:29.303Z,8.70
2019-02-21T00:48:57.965Z,9.03
2019-02-21T00:51:26.617Z,9.23
2019-02-21T00:53:55.368Z,8.87
2019-02-21T00:56:24.045Z,9.05
2019-02-21T00:58:52.783Z,8.90
2019-02-21T01:01:23.027Z,8.90
2019-02-21T01:03:51.683Z,9.13
2019-02-21T01:06:20.402Z,8.85
2019-02-21T01:08:49.383Z,8.90
2019-02-21T01:11:18.074Z,8.97
2019-02-21T01:13:46.805Z,9.57
2019-02-21T01:16:15.629Z,8.70
2019-02-21T01:18:44.292Z,8.88
2019-02-21T01:21:12.932Z,8.80
2019-02-21T01:23:41.608Z,8.98
2019-02-21T01:26:10.380Z,9.70
2019-02-21T01:28:39.037Z,8.93
2019-02-21T01:31:08.751Z,9.50
2019-02-21T01:33:37.418Z,9.58
2019-02-21T01:36:06.172Z,8.88
2019-02-21T01:38:34.833Z,9.40
2019-02-21T01:41:03.577Z,9.40
2019-02-21T01:43:32.295Z,9.50
2019-02-21T01:46:01.083Z,9.73
2019-02-21T01:48:29.908Z,9.40
2019-02-21T01:50:58.634Z,9.68
2019-02-21T01:53:27.307Z,9.40
2019-02-21T01:55:56.034Z,10.20
2019-02-21T01:58:24.721Z,9.23
2019-02-21T02:00:53.427Z,10.58
2019-02-21T02:03:22.089Z,10.15
2019-02-21T02:05:50.799Z,9.63
2019-02-21T02:08:19.456Z,10.43
2019-02-21T02:10:49.193Z,10.53
2019-02-21T02:13:24.549Z,10.38
2019-02-21T02:15:48.205Z,11.43
2019-02-21T02:18:16.979Z,10.75
2019-02-21T02:20:45.640Z,9.95
2019-02-21T02:23:14.298Z,10.53
2019-02-21T02:25:43.069Z,10.85
2019-02-21T02:28:11.649Z,10.67
2019-02-21T02:30:40.298Z,10.60
2019-02-21T02:33:08.943Z,10.72
2019-02-21T02:35:37.617Z,10.80
2019-02-21T02:38:06.435Z,10.40
2019-02-21T02:40:35.101Z,9.93
2019-02-21T02:43:03.761Z,9.25
2019-02-21T02:45:32.448Z,10.50
2019-02-21T02:48:01.239Z,10.30
2019-02-21T02:50:29.887Z,9.88
2019-02-21T02:52:58.623Z,9.97
2019-02-21T02:55:27.347Z,9.83
2019-02-21T02:57:56.005Z,9.97
2019-02-21T03:00:24.679Z,10.05
2019-02-21T03:02:53.351Z,10.67
2019-02-21T03:05:22.029Z,9.50
2019-02-21T03:07:50.711Z,9.33
2019-02-21T03:10:19.368Z,9.33
2019-02-21T03:12:48.095Z,10.35
2019-02-21T03:15:16.766Z,10.25
2019-02-21T03:17:45.433Z,10.50
2019-02-21T03:20:14.087Z,9.88
2019-02-21T03:22:42.826Z,10.25
2019-02-21T03:25:11.475Z,10.50
2019-02-21T03:27:40.149Z,10.10
2019-02-21T03:30:12.202Z,10.50
2019-02-21T03:32:39.427Z,9.90
2019-02-21T03:35:08.294Z,10.30
2019-02-21T03:37:36.968Z,10.00
2019-02-21T03:40:05.937Z,10.80
2019-02-21T03:42:34.675Z,10.63
2019-02-21T03:45:03.414Z,10.88
2019-02-21T03:47:32.136Z,10.82
2019-02-21T03:50:00.863Z,10.43
2019-02-21T03:52:29.529Z,9.80
2019-02-21T03:54:59.184Z,10.65
2019-02-21T03:57:27.915Z,10.75
2019-02-21T03:59:56.537Z,10.70
2019-02-21T04:02:25.249Z,10.83
2019-02-21T04:04:53.901Z,10.65
2019-02-21T04:07:25.765Z,10.45
2019-02-21T04:09:54.433Z,10.80
2019-02-21T04:12:23.208Z,10.58
2019-02-21T04:14:51.955Z,11.03
2019-02-21T04:17:20.593Z,10.53
2019-02-21T04:19:49.344Z,9.93
2019-02-21T04:22:18.081Z,10.25
2019-02-21T04:24:46.734Z,9.75
2019-02-21T04:27:15.456Z,10.48
2019-02-21T04:29:44.129Z,10.50
2019-02-21T04:32:16.935Z,10.78
2019-02-21T04:34:43.270Z,10.75
2019-02-21T04:37:12.009Z,10.25
2019-02-21T04:39:40.688Z,10.00
2019-02-21T04:42:09.457Z,10.07
2019-02-21T04:44:38.243Z,10.55
2019-02-21T04:47:06.893Z,10.45
2019-02-21T04:49:35.588Z,11.05
2019-02-21T04:52:04.305Z,11.00
2019-02-21T04:54:32.998Z,10.80
2019-02-21T04:57:01.717Z,11.10
2019-02-21T04:59:30.390Z,10.95
2019-02-21T05:01:59.068Z,11.08
2019-02-21T05:04:27.744Z,10.95
2019-02-21T05:06:56.505Z,10.65
2019-02-21T05:09:27.121Z,11.03
2019-02-21T05:11:55.615Z,11.10
2019-02-21T05:14:24.438Z,10.48
2019-02-21T05:16:54.090Z,10.23
2019-02-21T05:19:22.763Z,11.22
2019-02-21T05:21:51.537Z,10.82
2019-02-21T05:24:20.446Z,11.55
2019-02-21T05:26:56.215Z,11.45
2019-02-21T05:29:24.918Z,11.53
2019-02-21T05:32:04.113Z,11.50
2019-02-21T05:34:40.348Z,11.53
2019-02-21T05:37:21.377Z,11.70
2019-02-21T05:40:21.356Z,10.65
2019-02-21T05:43:18.140Z,10.85
2019-02-21T05:46:18.047Z,11.40
2019-02-21T05:49:11.614Z,11.25
2019-02-21T05:51:47.576Z,10.60
2019-02-21T05:54:25.790Z,10.63
2019-02-21T05:56:59.725Z,11.55
2019-02-21T06:00:02.817Z,10.93
2019-02-21T06:02:38.441Z,11.63
2019-02-21T06:05:19.503Z,11.33
2019-02-21T06:07:57.696Z,10.45
2019-02-21T06:10:51.551Z,11.28
2019-02-21T06:13:27.993Z,10.85
2019-02-21T06:16:21.747Z,11.35
2019-02-21T06:19:10.325Z,11.63
2019-02-21T06:22:07.660Z,11.08
2019-02-21T06:24:35.653Z,11.13
2019-02-21T06:27:18.643Z,11.12
2019-02-21T06:30:12.817Z,11.88
2019-02-21T06:32:41.651Z,10.95
2019-02-21T06:35:10.508Z,11.83
2019-02-21T06:37:39.253Z,11.70
2019-02-21T06:40:08.026Z,11.03
2019-02-21T06:42:36.701Z,10.88
2019-02-21T06:45:05.534Z,10.98
2019-02-21T06:47:34.278Z,11.70
2019-02-21T06:50:03.010Z,11.35
2019-02-21T06:52:31.782Z,11.18
2019-02-21T06:55:02.207Z,10.75
2019-02-21T06:57:30.827Z,12.07
2019-02-21T06:59:59.480Z,11.57
2019-02-21T07:02:28.325Z,11.30
2019-02-21T07:04:57.209Z,11.15
2019-02-21T07:07:25.897Z,11.43
2019-02-21T07:09:54.606Z,11.18
2019-02-21T07:12:23.326Z,11.43
2019-02-21T07:14:52.042Z,10.65
2019-02-21T07:17:20.699Z,11.38
2019-02-21T07:19:49.414Z,10.50
2019-02-21T07:22:22.030Z,10.88
2019-02-21T07:24:53.897Z,11.38
2019-02-21T07:27:21.790Z,11.10
2019-02-21T07:29:50.624Z,10.53
2019-02-21T07:32:19.287Z,11.33
2019-02-21T07:34:48.031Z,10.78
2019-02-21T07:37:19.011Z,11.35
2019-02-21T07:39:47.213Z,11.67
2019-02-21T07:42:15.950Z,11.30
2019-02-21T07:44:45.449Z,10.60
2019-02-21T07:47:14.343Z,10.43
2019-02-21T07:49:43.083Z,10.55
2019-02-21T07:52:11.669Z,11.55
2019-02-21T07:54:40.348Z,11.53
2019-02-21T07:57:09.008Z,11.43
2019-02-21T07:59:37.693Z,11.55
2019-02-21T08:02:06.434Z,11.17
2019-02-21T08:04:36.966Z,11.60
2019-02-21T08:07:05.553Z,11.83
2019-02-21T08:09:34.350Z,11.03
2019-02-21T08:12:02.970Z,10.93
2019-02-21T08:14:31.633Z,11.57
2019-02-21T08:17:00.276Z,11.45
2019-02-21T08:19:30.954Z,11.35
2019-02-21T08:22:00.317Z,11.00
2019-02-21T08:24:29.075Z,10.93
2019-02-21T08:26:57.735Z,11.03
2019-02-21T08:29:26.423Z,11.87
2019-02-21T08:31:55.086Z,11.20
2019-02-21T08:34:31.332Z,11.23
2019-02-21T08:37:00.069Z,11.53
2019-02-21T08:39:28.828Z,11.18
2019-02-21T08:41:57.533Z,10.55
2019-02-21T08:44:28.803Z,11.03
2019-02-21T08:46:56.626Z,11.57
2019-02-21T08:49:25.646Z,11.50
2019-02-21T08:51:55.169Z,11.48
2019-02-21T08:54:24.226Z,10.78
2019-02-21T08:56:53.146Z,11.33
2019-02-21T08:59:22.100Z,10.50
2019-02-21T09:01:50.973Z,10.38
2019-02-21T09:04:27.346Z,11.63
2019-02-21T09:06:50.453Z,11.05
2019-02-21T09:09:19.480Z,11.08
2019-02-21T09:11:48.576Z,11.50
2019-02-21T09:14:19.202Z,11.15
2019-02-21T09:16:48.090Z,10.63
2019-02-21T09:19:16.975Z,11.30
2019-02-21T09:21:45.917Z,11.65
2019-02-21T09:24:26.827Z,11.12
2019-02-21T09:26:45.526Z,11.05
2019-02-21T09:29:14.391Z,11.60
2019-02-21T09:31:43.325Z,11.70
2019-02-21T09:34:20.829Z,11.85
2019-02-21T09:36:42.964Z,11.60
2019-02-21T09:39:11.903Z,11.45
2019-02-21T09:41:40.845Z,10.97
2019-02-21T09:44:09.906Z,11.00
2019-02-21T09:46:40.614Z,11.45
2019-02-21T09:49:09.638Z,11.63
2019-02-21T09:51:38.550Z,11.57
2019-02-21T09:54:07.421Z,12.20
2019-02-21T09:56:36.374Z,11.50
2019-02-21T09:59:05.284Z,11.03
2019-02-21T10:01:34.313Z,11.90
2019-02-21T10:04:03.252Z,11.43
2019-02-21T10:06:32.174Z,11.73
2019-02-21T10:09:01.151Z,11.60
2019-02-21T10:11:31.656Z,11.37
2019-02-21T10:14:00.627Z,11.65
2019-02-21T10:16:32.554Z,12.10
2019-02-21T10:19:02.678Z,11.53
2019-02-21T10:21:31.709Z,11.63
2019-02-21T10:24:00.788Z,10.90
2019-02-21T10:26:29.714Z,11.12
2019-02-21T10:28:58.659Z,11.03
2019-02-21T10:31:27.612Z,11.88
2019-02-21T10:33:56.562Z,11.53
2019-02-21T10:36:25.490Z,12.00
2019-02-21T10:38:54.412Z,11.17
2019-02-21T10:41:23.282Z,11.30
2019-02-21T10:43:52.193Z,11.10
2019-02-21T10:46:21.111Z,10.90
2019-02-21T10:48:50.052Z,11.67
2019-02-21T10:51:19.014Z,11.23
2019-02-21T10:53:47.897Z,11.43
2019-02-21T10:56:16.826Z,11.13
2019-02-21T10:58:45.710Z,10.87
2019-02-21T11:01:14.585Z,12.00
2019-02-21T11:03:43.482Z,10.87
2019-02-21T11:06:12.502Z,11.63
2019-02-21T11:08:41.308Z,11.13
2019-02-21T11:11:10.276Z,11.43
2019-02-21T11:13:39.226Z,11.57
2019-02-21T11:16:08.135Z,11.03
2019-02-21T11:18:37.293Z,11.70
2019-02-21T11:21:06.243Z,11.55
2019-02-21T11:23:35.203Z,10.50
2019-02-21T11:26:04.146Z,11.90
2019-02-21T11:28:33.106Z,11.33
2019-02-21T11:31:02.048Z,11.57
2019-02-21T11:33:31.042Z,11.53
2019-02-21T11:36:00.080Z,11.95
2019-02-21T11:38:29.129Z,12.73
2019-02-21T11:40:58.038Z,12.57
2019-02-21T11:43:27.048Z,12.50
2019-02-21T11:45:57.405Z,11.37
2019-02-21T11:48:26.788Z,11.68
2019-02-21T11:50:55.682Z,11.07
2019-02-21T11:53:24.578Z,11.40
2019-02-21T11:55:53.572Z,12.87
2019-02-21T11:58:22.528Z,11.93
2019-02-21T12:00:51.580Z,12.47
2019-02-21T12:03:21.383Z,12.18
2019-02-21T12:05:50.585Z,12.60
2019-02-21T12:08:19.884Z,12.63
2019-02-21T12:10:50.876Z,12.00
2019-02-21T12:13:19.455Z,12.50
2019-02-21T12:15:48.477Z,11.77
2019-02-21T12:18:17.652Z,11.87
2019-02-21T12:20:47.636Z,12.30
2019-02-21T12:23:17.822Z,12.50
2019-02-21T12:25:46.878Z,12.13
2019-02-21T12:28:15.795Z,11.75
2019-02-21T12:30:44.916Z,12.30
2019-02-21T12:33:13.930Z,13.50
2019-02-21T12:35:43.192Z,12.85
2019-02-21T12:38:12.151Z,12.77
2019-02-21T12:40:41.187Z,12.43
2019-02-21T12:43:10.130Z,12.93
2019-02-21T12:45:39.033Z,12.43
2019-02-21T12:48:07.939Z,13.08
2019-02-21T12:50:44.241Z,12.93
2019-02-21T12:53:07.587Z,13.18
2019-02-21T12:55:36.628Z,12.65
2019-02-21T12:58:05.432Z,12.58
2019-02-21T13:00:36.574Z,12.88
2019-02-21T13:03:04.840Z,13.37
2019-02-21T13:05:41.206Z,12.97
2019-02-21T13:08:03.891Z,13.88
2019-02-21T13:10:34.876Z,13.50
2019-02-21T13:13:02.962Z,13.87
2019-02-21T13:15:31.667Z,14.10
2019-02-21T13:18:00.368Z,12.15
2019-02-21T13:20:29.039Z,13.55
2019-02-21T13:22:57.770Z,13.23
2019-02-21T13:25:26.415Z,13.65
2019-02-21T13:27:55.147Z,13.83
2019-02-21T13:30:23.841Z,13.87
2019-02-21T13:32:53.557Z,13.43
2019-02-21T13:35:22.285Z,13.30
2019-02-21T13:37:50.957Z,13.75
2019-02-21T13:40:21.197Z,13.25
2019-02-21T13:42:50.186Z,13.45
2019-02-21T13:45:18.937Z,13.10
2019-02-21T13:47:47.878Z,13.28
2019-02-21T13:50:16.595Z,13.67
2019-02-21T13:52:45.315Z,13.70
2019-02-21T13:55:14.055Z,13.53
2019-02-21T13:57:42.743Z,12.93
2019-02-21T14:00:12.714Z,13.15
2019-02-21T14:02:41.371Z,13.95
2019-02-21T14:05:10.056Z,13.72
2019-02-21T14:07:38.809Z,13.38
2019-02-21T14:10:08.005Z,13.53
2019-02-21T14:12:36.720Z,13.33
2019-02-21T14:15:05.748Z,13.68
2019-02-21T14:17:34.467Z,12.30
2019-02-21T14:20:03.251Z,13.27
2019-02-21T14:22:32.028Z,13.07
2019-02-21T14:25:00.763Z,12.03
2019-02-21T14:27:31.751Z,12.93
2019-02-21T14:29:59.795Z,11.88
2019-02-21T14:32:28.525Z,12.85
2019-02-21T14:34:57.201Z,11.88
2019-02-21T14:37:25.844Z,11.97
2019-02-21T14:39:54.611Z,12.60
2019-02-21T14:42:23.444Z,11.10
2019-02-21T14:44:52.076Z,10.85
2019-02-21T14:47:20.779Z,11.33
2019-02-21T14:49:49.448Z,11.35
2019-02-21T14:52:18.103Z,10.93
2019-02-21T14:54:46.792Z,10.67
2019-02-21T14:57:15.614Z,10.03
2019-02-21T14:59:44.835Z,10.83
2019-02-21T15:02:13.757Z,10.70
2019-02-21T15:04:42.592Z,10.67
2019-02-21T15:07:11.408Z,11.55
2019-02-21T15:09:40.150Z,11.10
2019-02-21T15:12:11.606Z,11.10
2019-02-21T15:14:39.490Z,10.63
2019-02-21T15:17:08.214Z,10.67
2019-02-21T15:19:37.006Z,10.43
2019-02-21T15:22:05.744Z,10.70
2019-02-21T15:24:34.543Z,10.05
2019-02-21T15:27:08.589Z,9.90
2019-02-21T15:29:33.620Z,9.67
2019-02-21T15:32:10.704Z,9.77
2019-02-21T15:34:33.693Z,9.03
2019-02-21T15:37:02.405Z,8.90
2019-02-21T15:39:31.229Z,8.97
2019-02-21T15:42:00.065Z,8.83
2019-02-21T15:44:28.811Z,8.03
2019-02-21T15:46:57.531Z,7.72
2019-02-21T15:49:26.251Z,8.10
2019-02-21T15:51:55.017Z,7.15
2019-02-21T15:54:23.761Z,7.05
2019-02-21T15:56:52.441Z,6.90
2019-02-21T15:59:21.278Z,6.30
2019-02-21T16:01:49.993Z,5.83
2019-02-21T16:04:18.660Z,5.50
2019-02-21T16:06:51.863Z,5.50
2019-02-21T16:09:17.756Z,5.63
2019-02-21T16:11:46.435Z,5.77
2019-02-21T16:14:15.215Z,5.13
2019-02-21T16:16:43.975Z,4.63
2019-02-21T16:19:12.778Z,4.60
2019-02-21T16:21:41.551Z,3.72
2019-02-21T16:24:11.269Z,3.52
2019-02-21T16:26:40.045Z,3.67
2019-02-21T16:29:08.774Z,3.60
2019-02-21T16:31:37.503Z,3.50
2019-02-21T16:34:06.265Z,3.62
2019-02-21T16:36:34.987Z,3.52
2019-02-21T16:39:04.610Z,3.20
2019-02-21T16:41:36.613Z,2.92
2019-02-21T16:44:07.115Z,3.00
2019-02-21T16:46:36.057Z,3.05
2019-02-21T16:49:04.808Z,2.90
2019-02-21T16:51:33.485Z,2.58
2019-02-21T16:54:02.182Z,3.02
2019-02-21T16:56:30.915Z,2.72
2019-02-21T16:58:59.593Z,3.00
2019-02-21T17:01:29.989Z,2.95
2019-02-21T17:03:58.779Z,3.00
2019-02-21T17:06:27.549Z,3.08
2019-02-21T17:08:56.311Z,3.00
2019-02-21T17:11:25.057Z,3.17
2019-02-21T17:13:53.759Z,3.13
2019-02-21T17:16:22.489Z,3.37
2019-02-21T17:18:51.266Z,3.30
2019-02-21T17:21:21.100Z,3.62
2019-02-21T17:23:49.972Z,3.70
2019-02-21T17:26:18.723Z,3.42
2019-02-21T17:28:47.421Z,3.72
2019-02-21T17:31:16.160Z,3.80
2019-02-21T17:33:44.869Z,4.35
2019-02-21T17:36:13.653Z,4.20
2019-02-21T17:38:42.314Z,4.58
2019-02-21T17:41:11.040Z,4.70
2019-02-21T17:43:39.792Z,5.30
2019-02-21T17:46:08.548Z,5.30
2019-02-21T17:48:37.268Z,5.13
2019-02-21T17:51:06.007Z,5.80
2019-02-21T17:53:34.719Z,6.80
2019-02-21T17:56:03.455Z,5.73
2019-02-21T17:58:32.229Z,6.40
2019-02-21T18:01:01.059Z,6.25
2019-02-21T18:03:30.851Z,6.17
2019-02-21T18:05:59.564Z,7.33
2019-02-21T18:08:28.235Z,6.50
2019-02-21T18:10:56.980Z,6.95
2019-02-21T18:13:25.800Z,7.60
2019-02-21T18:15:54.527Z,7.63
2019-02-21T18:18:23.212Z,7.58
2019-02-21T18:20:51.898Z,7.80
2019-02-21T18:23:20.589Z,7.55
2019-02-21T18:25:51.446Z,7.53
2019-02-21T18:28:20.192Z,8.15
2019-02-21T18:30:48.854Z,7.62
2019-02-21T18:33:17.639Z,8.33
2019-02-21T18:35:46.533Z,8.20
2019-02-21T18:38:15.309Z,8.00
2019-02-21T18:40:44.048Z,7.80
2019-02-21T18:43:12.809Z,7.73
2019-02-21T18:45:41.632Z,7.58
2019-02-21T18:48:10.453Z,8.13
2019-02-21T18:50:39.226Z,8.70
2019-02-21T18:53:07.982Z,7.53
2019-02-21T18:55:36.646Z,8.27
2019-02-21T18:58:05.423Z,7.67
2019-02-21T19:00:34.217Z,7.97
2019-02-21T19:03:02.960Z,8.00
2019-02-21T19:05:36.025Z,7.17
2019-02-21T19:08:05.330Z,8.00
2019-02-21T19:10:32.507Z,7.17
2019-02-21T19:13:01.366Z,7.80
2019-02-21T19:15:31.090Z,7.87
2019-02-21T19:17:59.930Z,8.20
2019-02-21T19:20:28.619Z,8.70
2019-02-21T19:22:57.272Z,8.35
2019-02-21T19:25:26.034Z,7.83
2019-02-21T19:27:54.813Z,7.63
2019-02-21T19:30:26.935Z,8.70
2019-02-21T19:32:55.708Z,8.78
2019-02-21T19:35:24.644Z,8.40
2019-02-21T19:37:53.850Z,9.10
2019-02-21T19:40:22.556Z,9.13
2019-02-21T19:42:51.285Z,9.50
2019-02-21T19:45:19.978Z,10.10
2019-02-21T19:47:48.682Z,9.23
2019-02-21T19:50:17.357Z,8.98
2019-02-21T19:52:46.259Z,9.13
2019-02-21T19:55:16.109Z,9.68
2019-02-21T19:57:44.865Z,9.15
2019-02-21T20:00:15.389Z,9.95
2019-02-21T20:02:44.252Z,10.40
2019-02-21T20:05:13.166Z,9.53
2019-02-21T20:07:42.000Z,9.58
2019-02-21T20:10:11.663Z,10.03
2019-02-21T20:12:40.352Z,10.03
2019-02-21T20:15:09.217Z,9.48
2019-02-21T20:17:37.963Z,10.10
2019-02-21T20:20:07.625Z,10.28
2019-02-21T20:22:36.302Z,9.95
2019-02-21T20:25:05.257Z,10.13
2019-02-21T20:27:33.994Z,9.53
2019-02-21T20:30:02.660Z,9.38
2019-02-21T20:32:32.559Z,9.68
2019-02-21T20:35:01.384Z,10.50
2019-02-21T20:37:30.216Z,9.35
2019-02-21T20:39:59.039Z,10.40
2019-02-21T20:42:27.862Z,10.75
2019-02-21T20:44:56.869Z,11.05
2019-02-21T20:47:25.595Z,10.68
2019-02-21T20:49:54.311Z,11.03
2019-02-21T20:52:23.043Z,11.20
2019-02-21T20:54:51.753Z,11.10
2019-02-21T20:57:20.455Z,11.03
2019-02-21T20:59:49.226Z,11.23
2019-02-21T21:02:17.898Z,11.53
2019-02-21T21:04:46.723Z,11.50
2019-02-21T21:07:24.767Z,12.67
2019-02-21T21:09:45.780Z,12.53
2019-02-21T21:12:14.543Z,12.83
2019-02-21T21:14:43.204Z,12.53
2019-02-21T21:17:11.893Z,12.33
2019-02-21T21:19:40.725Z,12.37
2019-02-21T21:22:09.530Z,11.53
2019-02-21T21:24:38.258Z,12.88
2019-02-21T21:27:09.629Z,12.40
2019-02-21T21:29:38.381Z,13.03
2019-02-21T21:32:07.106Z,12.37
2019-02-21T21:34:35.820Z,13.58
2019-02-21T21:37:04.568Z,13.13
2019-02-21T21:39:33.288Z,13.90
2019-02-21T21:42:02.163Z,12.30
2019-02-21T21:44:31.506Z,13.30
2019-02-21T21:47:00.375Z,13.13
2019-02-21T21:49:29.205Z,12.97
2019-02-21T21:51:57.951Z,12.88
2019-02-21T21:54:27.254Z,13.43
2019-02-21T21:56:57.060Z,13.20
2019-02-21T21:59:25.745Z,13.83
2019-02-21T22:01:54.483Z,13.63
2019-02-21T22:04:23.228Z,12.63
2019-02-21T22:06:51.886Z,13.45
2019-02-21T22:09:20.851Z,13.67
2019-02-21T22:11:49.726Z,12.47
2019-02-21T22:14:18.576Z,13.40
2019-02-21T22:16:47.343Z,13.73
2019-02-21T22:19:16.098Z,14.00
2019-02-21T22:21:44.839Z,13.20
2019-02-21T22:24:13.542Z,13.30
2019-02-21T22:26:42.268Z,13.45
2019-02-21T22:29:12.014Z,12.93
2019-02-21T22:31:40.778Z,12.90
2019-02-21T22:34:09.527Z,13.35
2019-02-21T22:36:38.339Z,12.53
2019-02-21T22:39:15.988Z,13.18
2019-02-21T22:41:37.920Z,12.93
2019-02-21T22:44:06.587Z,12.73
2019-02-21T22:46:35.264Z,12.33
2019-02-21T22:49:03.954Z,11.73
2019-02-21T22:51:32.691Z,12.18
2019-02-21T22:54:01.414Z,11.20
2019-02-21T22:56:30.210Z,11.97
2019-02-21T22:58:58.935Z,11.13
2019-02-21T23:01:29.439Z,12.10
2019-02-21T23:04:00.063Z,11.53
2019-02-21T23:06:47.926Z,11.65
2019-02-21T23:09:27.649Z,11.63
2019-02-21T23:11:52.230Z,10.77
2019-02-21T23:14:20.913Z,11.78
2019-02-21T23:16:49.747Z,11.18
2019-02-21T23:19:18.495Z,11.80
2019-02-21T23:21:47.199Z,10.78
2019-02-21T23:24:15.896Z,11.95
2019-02-21T23:26:44.694Z,11.85
2019-02-21T23:29:13.489Z,11.20
2019-02-21T23:31:42.137Z,11.60
2019-02-21T23:34:16.868Z,12.25
2019-02-21T23:36:45.541Z,12.13
2019-02-21T23:39:14.181Z,12.47
2019-02-21T23:41:43.037Z,12.05
2019-02-21T23:44:11.814Z,11.73
2019-02-21T23:46:40.541Z,11.50
2019-02-21T23:49:09.294Z,11.80
2019-02-21T23:51:38.071Z,11.08
2019-02-21T23:54:06.763Z,12.05
2019-02-21T23:56:35.424Z,11.73
2019-02-21T23:59:04.161Z,12.05
